sensor_id;sensor_type;location;lat;lon;timestamp;temperature;humidity
21834;DHT22;11079;51.092;3.458;2023-11-19T00:01:26;14.40;99.90
21834;DHT22;11079;51.092;3.458;2023-11-19T00:04:01;14.40;99.90
21834;DHT22;11079;51.092;3.458;2023-11-19T00:06:28;14.30;99.90
21834;DHT22;11079;51.092;3.458;2023-11-19T00:09:11;14.30;99.90
21834;DHT22;11079;51.092;3.458;2023-11-19T00:12:06;14.20;99.90
21834;DHT22;11079;51.092;3.458;2023-11-19T00:14:48;14.20;99.90
21834;DHT22;11079;51.092;3.458;2023-11-19T00:17:20;14.10;99.90
21834;DHT22;11079;51.092;3.458;2023-11-19T00:19:54;14.10;99.90
21834;DHT22;11079;51.092;3.458;2023-11-19T00:22:30;14.10;99.90
21834;DHT22;11079;51.092;3.458;2023-11-19T00:24:59;14.20;99.90
21834;DHT22;11079;51.092;3.458;2023-11-19T00:27:32;13.90;99.90
21834;DHT22;11079;51.092;3.458;2023-11-19T00:29:58;14.10;99.90
21834;DHT22;11079;51.092;3.458;2023-11-19T00:32:26;14.10;99.90
21834;DHT22;11079;51.092;3.458;2023-11-19T00:34:55;14.10;99.90
21834;DHT22;11079;51.092;3.458;2023-11-19T00:37:33;14.00;99.90
21834;DHT22;11079;51.092;3.458;2023-11-19T00:40:01;14.10;99.90
21834;DHT22;11079;51.092;3.458;2023-11-19T00:43:02;14.10;99.90
21834;DHT22;11079;51.092;3.458;2023-11-19T00:48:55;14.10;99.90
21834;DHT22;11079;51.092;3.458;2023-11-19T00:51:24;14.20;99.90
21834;DHT22;11079;51.092;3.458;2023-11-19T00:57:17;13.90;99.90
21834;DHT22;11079;51.092;3.458;2023-11-19T01:00:46;14.00;99.90
21834;DHT22;11079;51.092;3.458;2023-11-19T01:06:32;13.80;99.90
21834;DHT22;11079;51.092;3.458;2023-11-19T01:09:22;13.70;99.90
21834;DHT22;11079;51.092;3.458;2023-11-19T01:11:51;13.60;99.90
21834;DHT22;11079;51.092;3.458;2023-11-19T01:14:44;13.50;99.90
21834;DHT22;11079;51.092;3.458;2023-11-19T01:24:18;13.50;99.90
21834;DHT22;11079;51.092;3.458;2023-11-19T01:33:58;13.80;99.90
21834;DHT22;11079;51.092;3.458;2023-11-19T01:36:47;13.80;99.90
21834;DHT22;11079;51.092;3.458;2023-11-19T01:39:55;13.90;99.90
21834;DHT22;11079;51.092;3.458;2023-11-19T02:19:55;13.40;99.90
21834;DHT22;11079;51.092;3.458;2023-11-19T03:55:46;13.10;99.90
21834;DHT22;11079;51.092;3.458;2023-11-19T07:32:12;12.10;99.90
21834;DHT22;11079;51.092;3.458;2023-11-19T07:38:37;11.90;99.90
21834;DHT22;11079;51.092;3.458;2023-11-19T07:47:50;11.80;99.90
21834;DHT22;11079;51.092;3.458;2023-11-19T07:53:32;12.20;99.90
21834;DHT22;11079;51.092;3.458;2023-11-19T07:56:36;12.30;99.90
21834;DHT22;11079;51.092;3.458;2023-11-19T07:59:05;12.40;99.90
21834;DHT22;11079;51.092;3.458;2023-11-19T08:01:58;12.80;99.90
21834;DHT22;11079;51.092;3.458;2023-11-19T08:04:53;13.00;99.90
21834;DHT22;11079;51.092;3.458;2023-11-19T08:07:52;13.40;99.90
21834;DHT22;11079;51.092;3.458;2023-11-19T08:14:21;13.90;99.90
21834;DHT22;11079;51.092;3.458;2023-11-19T08:20:58;14.30;99.90
21834;DHT22;11079;51.092;3.458;2023-11-19T08:23:26;14.40;99.90
21834;DHT22;11079;51.092;3.458;2023-11-19T08:25:54;14.50;99.90
21834;DHT22;11079;51.092;3.458;2023-11-19T08:28:22;14.50;99.90
21834;DHT22;11079;51.092;3.458;2023-11-19T08:30:53;14.50;99.90
21834;DHT22;11079;51.092;3.458;2023-11-19T08:33:18;14.40;99.90
21834;DHT22;11079;51.092;3.458;2023-11-19T08:35:53;14.30;99.90
21834;DHT22;11079;51.092;3.458;2023-11-19T08:38:21;14.30;99.90
21834;DHT22;11079;51.092;3.458;2023-11-19T08:40:50;14.80;99.90
21834;DHT22;11079;51.092;3.458;2023-11-19T08:43:17;15.00;99.90
21834;DHT22;11079;51.092;3.458;2023-11-19T08:45:43;15.10;99.90
21834;DHT22;11079;51.092;3.458;2023-11-19T08:48:09;15.20;99.90
21834;DHT22;11079;51.092;3.458;2023-11-19T08:51:19;15.20;99.90
21834;DHT22;11079;51.092;3.458;2023-11-19T08:57:05;14.50;99.90
21834;DHT22;11079;51.092;3.458;2023-11-19T08:59:35;14.40;99.90
21834;DHT22;11079;51.092;3.458;2023-11-19T09:02:09;14.30;99.90
21834;DHT22;11079;51.092;3.458;2023-11-19T09:04:37;14.20;99.90
21834;DHT22;11079;51.092;3.458;2023-11-19T09:07:06;14.10;99.90
21834;DHT22;11079;51.092;3.458;2023-11-19T09:09:32;14.00;99.90
21834;DHT22;11079;51.092;3.458;2023-11-19T09:12:01;13.90;99.90
21834;DHT22;11079;51.092;3.458;2023-11-19T09:14:26;13.70;99.90
21834;DHT22;11079;51.092;3.458;2023-11-19T09:16:52;13.70;99.90
21834;DHT22;11079;51.092;3.458;2023-11-19T09:19:18;13.70;99.90
21834;DHT22;11079;51.092;3.458;2023-11-19T09:21:44;13.80;99.90
21834;DHT22;11079;51.092;3.458;2023-11-19T09:24:09;13.90;99.90
21834;DHT22;11079;51.092;3.458;2023-11-19T09:26:35;14.70;99.90
21834;DHT22;11079;51.092;3.458;2023-11-19T09:29:06;15.80;99.90
21834;DHT22;11079;51.092;3.458;2023-11-19T09:31:47;16.50;99.90
21834;DHT22;11079;51.092;3.458;2023-11-19T09:34:33;16.40;99.90
21834;DHT22;11079;51.092;3.458;2023-11-19T09:37:07;16.00;99.90
21834;DHT22;11079;51.092;3.458;2023-11-19T09:49:05;14.20;99.90
21834;DHT22;11079;51.092;3.458;2023-11-19T09:51:40;14.00;99.90
21834;DHT22;11079;51.092;3.458;2023-11-19T09:54:07;14.00;99.90
21834;DHT22;11079;51.092;3.458;2023-11-19T09:56:53;13.80;99.90
21834;DHT22;11079;51.092;3.458;2023-11-19T09:59:59;13.70;99.90
21834;DHT22;11079;51.092;3.458;2023-11-19T10:02:57;13.50;99.90
21834;DHT22;11079;51.092;3.458;2023-11-19T10:05:26;13.50;99.90
21834;DHT22;11079;51.092;3.458;2023-11-19T10:07:55;13.40;99.90
21834;DHT22;11079;51.092;3.458;2023-11-19T10:10:29;13.50;99.90
21834;DHT22;11079;51.092;3.458;2023-11-19T10:12:59;13.70;99.90
21834;DHT22;11079;51.092;3.458;2023-11-19T10:15:26;14.10;99.90
21834;DHT22;11079;51.092;3.458;2023-11-19T10:18:27;14.20;99.90
21834;DHT22;11079;51.092;3.458;2023-11-19T10:20:53;14.20;99.90
21834;DHT22;11079;51.092;3.458;2023-11-19T10:23:20;14.00;99.90
21834;DHT22;11079;51.092;3.458;2023-11-19T10:25:46;14.10;99.90
21834;DHT22;11079;51.092;3.458;2023-11-19T10:28:15;14.10;99.90
21834;DHT22;11079;51.092;3.458;2023-11-19T10:30:45;14.10;99.90
21834;DHT22;11079;51.092;3.458;2023-11-19T10:33:18;14.70;99.90
21834;DHT22;11079;51.092;3.458;2023-11-19T10:35:59;15.50;99.90
21834;DHT22;11079;51.092;3.458;2023-11-19T10:38:26;16.50;99.90
21834;DHT22;11079;51.092;3.458;2023-11-19T10:40:52;17.30;99.90
21834;DHT22;11079;51.092;3.458;2023-11-19T10:43:19;17.60;99.90
21834;DHT22;11079;51.092;3.458;2023-11-19T10:45:47;17.90;99.90
21834;DHT22;11079;51.092;3.458;2023-11-19T10:48:15;18.50;99.90
21834;DHT22;11079;51.092;3.458;2023-11-19T10:50:59;18.60;99.90
21834;DHT22;11079;51.092;3.458;2023-11-19T10:53:25;19.00;99.90
21834;DHT22;11079;51.092;3.458;2023-11-19T10:59:09;19.10;99.90
21834;DHT22;11079;51.092;3.458;2023-11-19T11:01:52;19.50;99.90
21834;DHT22;11079;51.092;3.458;2023-11-19T11:10:47;18.60;99.90
21834;DHT22;11079;51.092;3.458;2023-11-19T11:13:28;17.90;99.90
21834;DHT22;11079;51.092;3.458;2023-11-19T11:19:57;16.60;99.90
21834;DHT22;11079;51.092;3.458;2023-11-19T11:22:29;15.80;99.90
21834;DHT22;11079;51.092;3.458;2023-11-19T11:39:31;14.10;99.90
21834;DHT22;11079;51.092;3.458;2023-11-19T11:45:05;14.70;99.90
21834;DHT22;11079;51.092;3.458;2023-11-19T11:50:53;16.30;99.90
21834;DHT22;11079;51.092;3.458;2023-11-19T11:53:22;17.20;99.90
21834;DHT22;11079;51.092;3.458;2023-11-19T11:55:53;17.50;99.90
21834;DHT22;11079;51.092;3.458;2023-11-19T11:58:40;18.20;99.90
21834;DHT22;11079;51.092;3.458;2023-11-19T12:01:17;18.10;99.90
21834;DHT22;11079;51.092;3.458;2023-11-19T12:04:00;18.70;99.90
21834;DHT22;11079;51.092;3.458;2023-11-19T12:06:35;18.90;99.90
21834;DHT22;11079;51.092;3.458;2023-11-19T12:13:01;18.20;99.90
21834;DHT22;11079;51.092;3.458;2023-11-19T12:15:32;17.90;99.90
21834;DHT22;11079;51.092;3.458;2023-11-19T15:11:31;13.10;99.90
21834;DHT22;11079;51.092;3.458;2023-11-19T15:14:43;13.20;99.90
21834;DHT22;11079;51.092;3.458;2023-11-19T15:42:41;12.90;99.90
21834;DHT22;11079;51.092;3.458;2023-11-19T16:12:47;13.20;99.90
21834;DHT22;11079;51.092;3.458;2023-11-19T16:15:14;13.10;99.90
21834;DHT22;11079;51.092;3.458;2023-11-19T16:17:43;13.10;99.90
21834;DHT22;11079;51.092;3.458;2023-11-19T17:55:03;12.80;99.90
21834;DHT22;11079;51.092;3.458;2023-11-19T18:52:14;13.00;99.90
21834;DHT22;11079;51.092;3.458;2023-11-19T19:02:30;13.10;99.90
21834;DHT22;11079;51.092;3.458;2023-11-19T19:05:18;13.20;99.90
21834;DHT22;11079;51.092;3.458;2023-11-19T19:25:18;13.30;99.90
21834;DHT22;11079;51.092;3.458;2023-11-19T19:28:19;13.30;99.90
21834;DHT22;11079;51.092;3.458;2023-11-19T19:31:11;13.30;99.90
21834;DHT22;11079;51.092;3.458;2023-11-19T19:37:59;13.30;99.90
21834;DHT22;11079;51.092;3.458;2023-11-19T19:40:35;13.20;99.90
21834;DHT22;11079;51.092;3.458;2023-11-19T20:25:43;13.10;99.90
21834;DHT22;11079;51.092;3.458;2023-11-19T21:14:53;13.00;99.90
21834;DHT22;11079;51.092;3.458;2023-11-19T21:24:26;13.00;99.90
21834;DHT22;11079;51.092;3.458;2023-11-19T21:41:05;12.80;99.90
21834;DHT22;11079;51.092;3.458;2023-11-19T21:51:04;12.70;99.90
21834;DHT22;11079;51.092;3.458;2023-11-19T21:53:53;12.80;99.90
21834;DHT22;11079;51.092;3.458;2023-11-19T21:56:21;12.90;99.90
21834;DHT22;11079;51.092;3.458;2023-11-19T21:58:59;12.80;99.90
21834;DHT22;11079;51.092;3.458;2023-11-19T22:01:27;12.90;99.90
21834;DHT22;11079;51.092;3.458;2023-11-19T22:04:10;12.80;99.90
21834;DHT22;11079;51.092;3.458;2023-11-19T22:10:38;12.90;99.90
21834;DHT22;11079;51.092;3.458;2023-11-19T22:13:21;12.70;99.90
21834;DHT22;11079;51.092;3.458;2023-11-19T22:19:35;12.40;99.90
21834;DHT22;11079;51.092;3.458;2023-11-19T22:22:33;12.60;99.90
21834;DHT22;11079;51.092;3.458;2023-11-19T22:29:01;12.60;99.90
21834;DHT22;11079;51.092;3.458;2023-11-19T22:31:41;12.50;99.90
21834;DHT22;11079;51.092;3.458;2023-11-19T22:34:32;12.50;99.90
21834;DHT22;11079;51.092;3.458;2023-11-19T22:37:49;12.30;99.90
21834;DHT22;11079;51.092;3.458;2023-11-19T22:40:24;12.40;99.90
21834;DHT22;11079;51.092;3.458;2023-11-19T22:46:22;12.30;99.90
21834;DHT22;11079;51.092;3.458;2023-11-19T22:48:51;12.50;99.90
21834;DHT22;11079;51.092;3.458;2023-11-19T22:51:20;12.30;99.90
21834;DHT22;11079;51.092;3.458;2023-11-19T22:53:46;12.50;99.90
21834;DHT22;11079;51.092;3.458;2023-11-19T22:56:12;12.50;99.90
21834;DHT22;11079;51.092;3.458;2023-11-19T23:02:49;12.40;99.90
